Time;durP1;ratioP1;P1;durP2;ratioP2;P2;SDS_P1;SDS_P2;PMS_P1;PMS_P2;Temp;Humidity;BMP_temperature;BMP_pressure;BME280_temperature;BME280_humidity;BME280_pressure;Samples;Min_cycle;Max_cycle;Signal;HPM_P1;HPM_P2
2023/07/12 00:01:41;;;;;;;14.40;12.97;;;;;;;;;;6271281;28;20218;-67
2023/07/12 00:04:42;;;;;;;15.27;13.73;;;;;;;;;;6246063;28;20213;-68
2023/07/12 00:07:45;;;;;;;15.67;14.27;;;;;;;;;;6285494;28;20620;-67
2023/07/12 00:10:47;;;;;;;14.93;13.53;;;;;;;;;;6253705;28;20229;-68
2023/07/12 00:13:48;;;;;;;16.80;15.37;;;;;;;;;;6271037;28;20259;-68
2023/07/12 00:16:49;;;;;;;15.63;14.10;;;;;;;;;;6273330;28;20564;-68
2023/07/12 00:19:50;;;;;;;15.03;13.53;;;;;;;;;;6249489;28;20209;-68
2023/07/12 00:22:51;;;;;;;15.10;13.73;;;;;;;;;;6239472;28;20194;-68
2023/07/12 00:25:52;;;;;;;14.20;12.93;;;;;;;;;;6270566;28;20195;-68
2023/07/12 00:28:54;;;;;;;15.70;13.97;;;;;;;;;;6274470;28;20245;-68
2023/07/12 00:31:55;;;;;;;14.60;13.30;;;;;;;;;;6265536;28;20258;-68
2023/07/12 00:34:56;;;;;;;14.57;13.17;;;;;;;;;;6248176;28;20229;-68
2023/07/12 00:38:00;;;;;;;13.97;12.70;;;;;;;;;;6240175;28;20199;-68
2023/07/12 00:41:07;;;;;;;14.03;12.63;;;;;;;;;;6260288;28;20194;-68
2023/07/12 00:44:10;;;;;;;13.90;12.50;;;;;;;;;;6285891;28;20197;-68
2023/07/12 00:47:12;;;;;;;13.97;12.63;;;;;;;;;;6272050;28;20243;-68
2023/07/12 00:50:19;;;;;;;13.37;12.10;;;;;;;;;;6270987;28;20646;-68
2023/07/12 00:53:25;;;;;;;14.87;13.37;;;;;;;;;;6265534;28;20271;-68
2023/07/12 00:56:27;;;;;;;15.50;13.77;;;;;;;;;;6268029;28;20244;-68
2023/07/12 00:59:30;;;;;;;13.80;12.63;;;;;;;;;;6295925;28;20193;-67
2023/07/12 01:02:31;;;;;;;14.30;13.00;;;;;;;;;;6269839;28;20200;-68
2023/07/12 01:05:32;;;;;;;14.43;13.07;;;;;;;;;;6257210;28;20196;-68
2023/07/12 01:08:33;;;;;;;14.83;13.47;;;;;;;;;;6254825;28;20190;-68
2023/07/12 01:11:34;;;;;;;14.27;12.97;;;;;;;;;;6268103;28;20196;-68
2023/07/12 01:14:35;;;;;;;14.60;13.20;;;;;;;;;;6257482;28;20216;-67
2023/07/12 01:17:36;;;;;;;14.83;13.50;;;;;;;;;;6288531;28;20193;-68
2023/07/12 01:20:39;;;;;;;15.23;13.53;;;;;;;;;;6252524;28;20243;-68
2023/07/12 01:23:41;;;;;;;14.50;13.10;;;;;;;;;;6268569;28;20282;-68
2023/07/12 01:26:43;;;;;;;14.50;13.20;;;;;;;;;;6288024;28;20241;-68
2023/07/12 01:29:45;;;;;;;13.97;12.50;;;;;;;;;;6270276;28;20221;-68
2023/07/12 01:32:47;;;;;;;14.53;13.03;;;;;;;;;;6296985;28;20275;-68
2023/07/12 01:35:48;;;;;;;14.73;13.27;;;;;;;;;;6259739;28;20225;-68
2023/07/12 01:38:50;;;;;;;13.83;12.63;;;;;;;;;;6241128;28;20245;-68
2023/07/12 01:41:51;;;;;;;14.20;12.90;;;;;;;;;;6267530;28;20182;-68
2023/07/12 01:44:52;;;;;;;15.50;13.93;;;;;;;;;;6282145;28;20300;-68
2023/07/12 01:47:55;;;;;;;15.60;14.07;;;;;;;;;;6271987;28;20213;-68
2023/07/12 01:50:56;;;;;;;15.37;13.87;;;;;;;;;;6267215;28;20207;-67
2023/07/12 01:53:57;;;;;;;15.70;14.13;;;;;;;;;;6276411;28;20222;-67
2023/07/12 01:56:58;;;;;;;17.40;13.93;;;;;;;;;;6301465;28;20196;-67
2023/07/12 02:00:00;;;;;;;15.00;13.63;;;;;;;;;;6261189;28;20206;-68
2023/07/12 02:03:01;;;;;;;14.77;13.27;;;;;;;;;;6251354;28;20280;-67
2023/07/12 02:06:02;;;;;;;15.67;14.00;;;;;;;;;;6270170;28;20239;-67
2023/07/12 02:09:03;;;;;;;15.17;13.60;;;;;;;;;;6255316;28;20233;-67
2023/07/12 02:12:04;;;;;;;14.07;12.87;;;;;;;;;;6242660;28;20321;-68
2023/07/12 02:15:05;;;;;;;15.37;13.87;;;;;;;;;;6251198;28;20297;-67
2023/07/12 02:18:07;;;;;;;15.30;14.00;;;;;;;;;;6289202;28;20186;-67
2023/07/12 02:21:08;;;;;;;14.90;13.40;;;;;;;;;;6246609;28;20276;-67
2023/07/12 02:24:09;;;;;;;15.13;13.73;;;;;;;;;;6243446;28;20260;-67
2023/07/12 02:27:10;;;;;;;14.77;13.27;;;;;;;;;;6238915;28;20264;-67
2023/07/12 02:30:12;;;;;;;14.97;13.43;;;;;;;;;;6248851;28;20199;-68
2023/07/12 02:33:13;;;;;;;15.57;14.07;;;;;;;;;;6269261;28;20194;-67
2023/07/12 02:36:14;;;;;;;16.10;14.50;;;;;;;;;;6281728;28;20207;-68
2023/07/12 02:39:15;;;;;;;15.20;13.70;;;;;;;;;;6263646;28;20263;-68
2023/07/12 02:42:16;;;;;;;15.00;13.63;;;;;;;;;;6272855;28;20186;-67
2023/07/12 02:45:17;;;;;;;15.40;13.97;;;;;;;;;;6256467;28;20342;-68
2023/07/12 02:48:18;;;;;;;15.77;14.33;;;;;;;;;;6253540;28;20216;-68
2023/07/12 02:51:19;;;;;;;16.43;14.83;;;;;;;;;;6251126;28;20195;-67
2023/07/12 02:54:20;;;;;;;14.83;13.53;;;;;;;;;;6263184;28;20213;-67
2023/07/12 02:57:21;;;;;;;15.33;13.93;;;;;;;;;;6260282;28;20187;-67
2023/07/12 03:00:22;;;;;;;16.17;14.70;;;;;;;;;;6262663;28;20201;-67
2023/07/12 03:03:23;;;;;;;14.37;13.10;;;;;;;;;;6262221;28;20216;-68
2023/07/12 03:06:24;;;;;;;15.03;13.73;;;;;;;;;;6278882;28;20193;-68
2023/07/12 03:09:26;;;;;;;15.23;13.83;;;;;;;;;;6251046;28;20194;-68
2023/07/12 03:12:27;;;;;;;15.77;13.47;;;;;;;;;;6280408;28;20200;-68
2023/07/12 03:15:28;;;;;;;15.27;13.73;;;;;;;;;;6282521;28;20215;-68
2023/07/12 03:18:29;;;;;;;15.70;14.20;;;;;;;;;;6295820;28;20217;-67
2023/07/12 03:21:31;;;;;;;15.87;14.17;;;;;;;;;;6273835;28;20193;-67
2023/07/12 03:24:32;;;;;;;16.03;14.63;;;;;;;;;;6258932;28;20197;-67
2023/07/12 03:27:33;;;;;;;15.63;14.07;;;;;;;;;;6259234;28;20245;-68
2023/07/12 03:30:34;;;;;;;17.83;16.07;;;;;;;;;;6278882;28;20201;-68
2023/07/12 03:33:35;;;;;;;16.80;15.27;;;;;;;;;;6278377;28;20229;-68
2023/07/12 03:36:37;;;;;;;16.40;14.90;;;;;;;;;;6271429;28;20186;-68
2023/07/12 03:39:38;;;;;;;17.57;15.97;;;;;;;;;;6253518;28;20294;-68
2023/07/12 03:42:39;;;;;;;17.13;15.57;;;;;;;;;;6272105;28;20498;-68
2023/07/12 03:45:42;;;;;;;16.70;15.10;;;;;;;;;;6251546;28;20194;-68
2023/07/12 03:48:44;;;;;;;16.70;15.13;;;;;;;;;;6287607;28;20201;-68
2023/07/12 03:51:45;;;;;;;16.73;15.03;;;;;;;;;;6257114;28;20243;-66
2023/07/12 03:54:46;;;;;;;16.13;14.57;;;;;;;;;;6255227;28;20221;-68
2023/07/12 03:57:47;;;;;;;16.40;14.80;;;;;;;;;;6257611;28;20221;-67
2023/07/12 04:00:49;;;;;;;14.87;13.57;;;;;;;;;;6248329;28;20201;-67
2023/07/12 04:03:50;;;;;;;15.57;13.93;;;;;;;;;;6292918;28;20267;-66
2023/07/12 04:06:51;;;;;;;17.20;15.13;;;;;;;;;;6251384;28;20191;-67
2023/07/12 04:09:52;;;;;;;17.00;15.50;;;;;;;;;;6254686;28;20284;-67
2023/07/12 04:12:53;;;;;;;17.23;15.40;;;;;;;;;;6258329;28;20190;-67
2023/07/12 04:15:55;;;;;;;16.47;14.87;;;;;;;;;;6233469;28;20214;-67
2023/07/12 04:18:57;;;;;;;17.87;16.07;;;;;;;;;;6289235;28;20233;-67
2023/07/12 04:21:58;;;;;;;18.90;17.20;;;;;;;;;;6270125;28;20191;-67
2023/07/12 04:24:59;;;;;;;17.87;16.00;;;;;;;;;;6253840;28;20215;-67
2023/07/12 04:28:00;;;;;;;18.33;16.73;;;;;;;;;;6259548;28;20246;-67
2023/07/12 04:31:05;;;;;;;18.43;16.77;;;;;;;;;;6256602;28;20312;-67
2023/07/12 04:34:06;;;;;;;17.17;15.63;;;;;;;;;;6258081;28;20218;-67
2023/07/12 04:37:08;;;;;;;17.33;15.67;;;;;;;;;;6271515;28;20226;-66
2023/07/12 04:40:09;;;;;;;18.60;16.57;;;;;;;;;;6252633;28;20221;-66
2023/07/12 04:43:10;;;;;;;17.67;15.90;;;;;;;;;;6260245;28;20243;-66
2023/07/12 04:46:11;;;;;;;16.70;14.90;;;;;;;;;;6256956;28;20198;-66
2023/07/12 04:49:12;;;;;;;17.10;15.60;;;;;;;;;;6259293;28;20217;-66
2023/07/12 04:52:13;;;;;;;16.83;15.33;;;;;;;;;;6257964;28;20199;-67
2023/07/12 04:55:26;;;;;;;15.43;13.90;;;;;;;;;;6262345;28;20224;-67
2023/07/12 04:58:27;;;;;;;16.03;14.43;;;;;;;;;;6266443;28;20191;-67
2023/07/12 05:01:29;;;;;;;15.63;14.33;;;;;;;;;;6248518;28;20204;-68
2023/07/12 05:04:30;;;;;;;16.73;15.10;;;;;;;;;;6264884;28;20198;-67
2023/07/12 05:07:31;;;;;;;16.47;14.97;;;;;;;;;;6287350;28;20205;-68
2023/07/12 05:10:33;;;;;;;15.93;13.73;;;;;;;;;;6255924;28;20248;-68
2023/07/12 05:13:34;;;;;;;14.13;12.73;;;;;;;;;;6262505;28;20236;-71
2023/07/12 05:16:35;;;;;;;14.93;13.43;;;;;;;;;;6260619;28;20216;-66
2023/07/12 05:19:36;;;;;;;16.50;14.80;;;;;;;;;;6257342;28;20323;-68
2023/07/12 05:22:37;;;;;;;15.43;13.93;;;;;;;;;;6268988;28;20186;-67
2023/07/12 05:25:38;;;;;;;14.80;13.37;;;;;;;;;;6283228;28;20193;-65
2023/07/12 05:28:39;;;;;;;15.53;14.13;;;;;;;;;;6252625;28;20246;-68
2023/07/12 05:31:40;;;;;;;16.80;15.20;;;;;;;;;;6259945;28;20267;-68
2023/07/12 05:34:41;;;;;;;15.80;14.30;;;;;;;;;;6280196;28;20207;-68
2023/07/12 05:37:42;;;;;;;16.27;14.67;;;;;;;;;;6251813;28;20313;-67
2023/07/12 05:40:43;;;;;;;15.43;14.03;;;;;;;;;;6272512;28;20201;-66
2023/07/12 05:43:44;;;;;;;15.83;14.27;;;;;;;;;;6242915;28;20191;-66
2023/07/12 05:46:46;;;;;;;13.47;12.07;;;;;;;;;;6280904;28;20245;-68
2023/07/12 05:49:47;;;;;;;13.93;12.53;;;;;;;;;;6254856;28;20189;-67
2023/07/12 05:52:48;;;;;;;13.67;12.30;;;;;;;;;;6264752;28;20202;-66
2023/07/12 05:55:54;;;;;;;14.40;13.00;;;;;;;;;;6262081;28;20206;-65
2023/07/12 05:58:55;;;;;;;13.37;12.07;;;;;;;;;;6289947;28;20182;-72
2023/07/12 06:01:56;;;;;;;12.57;11.47;;;;;;;;;;6255427;28;20199;-69
2023/07/12 06:04:57;;;;;;;13.17;11.83;;;;;;;;;;6237092;28;20194;-68
2023/07/12 06:07:58;;;;;;;12.37;11.27;;;;;;;;;;6266208;28;20197;-68
2023/07/12 06:10:59;;;;;;;13.47;12.13;;;;;;;;;;6248797;28;20205;-66
2023/07/12 06:14:01;;;;;;;14.10;12.53;;;;;;;;;;6249360;28;20283;-68
2023/07/12 06:17:02;;;;;;;15.07;12.30;;;;;;;;;;6240396;28;20208;-67
2023/07/12 06:20:03;;;;;;;14.77;13.23;;;;;;;;;;6243325;28;20225;-67
2023/07/12 06:23:04;;;;;;;14.97;13.47;;;;;;;;;;6293585;28;20192;-67
2023/07/12 06:26:05;;;;;;;13.60;12.30;;;;;;;;;;6251142;28;20256;-68
2023/07/12 06:29:06;;;;;;;12.23;11.03;;;;;;;;;;6284285;28;20218;-69
2023/07/12 06:32:11;;;;;;;12.83;11.67;;;;;;;;;;6248425;28;20576;-69
2023/07/12 06:35:12;;;;;;;12.53;11.30;;;;;;;;;;6298377;28;20206;-68
2023/07/12 06:38:13;;;;;;;13.63;11.87;;;;;;;;;;6248980;28;20224;-69
2023/07/12 06:41:14;;;;;;;12.63;10.10;;;;;;;;;;6287283;28;20183;-69
2023/07/12 06:44:15;;;;;;;13.33;12.03;;;;;;;;;;6248077;28;20194;-69
2023/07/12 06:47:16;;;;;;;12.37;11.23;;;;;;;;;;6255353;28;20201;-69
2023/07/12 06:50:17;;;;;;;11.43;10.43;;;;;;;;;;6261050;28;20240;-68
2023/07/12 06:53:18;;;;;;;11.27;10.27;;;;;;;;;;6280597;28;20206;-69
2023/07/12 06:56:19;;;;;;;11.57;10.50;;;;;;;;;;6249117;28;20191;-66
2023/07/12 06:59:22;;;;;;;10.93;9.93;;;;;;;;;;6255085;28;20186;-68
2023/07/12 07:02:23;;;;;;;11.23;10.23;;;;;;;;;;6251540;28;20190;-68
2023/07/12 07:05:24;;;;;;;11.13;10.07;;;;;;;;;;6248477;28;20193;-68
2023/07/12 07:08:25;;;;;;;10.47;9.60;;;;;;;;;;6253859;28;20185;-68
2023/07/12 07:11:26;;;;;;;10.30;9.30;;;;;;;;;;6250375;28;20197;-68
2023/07/12 07:14:27;;;;;;;9.27;8.23;;;;;;;;;;6242245;28;20206;-68
2023/07/12 07:17:28;;;;;;;8.83;7.93;;;;;;;;;;6251742;28;20193;-67
2023/07/12 07:20:29;;;;;;;8.70;7.27;;;;;;;;;;6249185;28;20256;-67
2023/07/12 07:23:31;;;;;;;9.03;8.13;;;;;;;;;;6236715;28;20195;-67
2023/07/12 07:26:32;;;;;;;8.30;7.50;;;;;;;;;;6247364;28;20238;-67
2023/07/12 07:29:34;;;;;;;12.83;9.03;;;;;;;;;;6247673;28;20262;-67
2023/07/12 07:32:35;;;;;;;9.17;8.37;;;;;;;;;;6245678;28;20225;-67
2023/07/12 07:35:37;;;;;;;9.33;8.43;;;;;;;;;;6256135;28;20205;-67
2023/07/12 07:38:38;;;;;;;9.17;8.27;;;;;;;;;;6255528;28;20273;-67
2023/07/12 07:41:39;;;;;;;9.30;8.40;;;;;;;;;;6246955;28;20186;-66
2023/07/12 07:44:40;;;;;;;9.93;8.60;;;;;;;;;;6250928;28;20194;-66
2023/07/12 07:47:41;;;;;;;9.10;8.30;;;;;;;;;;6241950;28;20191;-66
2023/07/12 07:50:43;;;;;;;8.40;7.60;;;;;;;;;;6270771;28;20201;-66
2023/07/12 07:53:44;;;;;;;8.47;7.77;;;;;;;;;;6261557;28;20214;-67
2023/07/12 07:56:45;;;;;;;8.73;7.93;;;;;;;;;;6244565;28;20255;-68
2023/07/12 07:59:46;;;;;;;9.17;8.37;;;;;;;;;;6244006;28;20228;-67
2023/07/12 08:02:47;;;;;;;9.47;8.57;;;;;;;;;;6257854;28;20187;-67
2023/07/12 08:05:48;;;;;;;8.83;8.03;;;;;;;;;;6244478;28;20197;-68
2023/07/12 08:08:50;;;;;;;9.57;8.67;;;;;;;;;;6245443;28;20217;-66
2023/07/12 08:11:51;;;;;;;8.97;8.07;;;;;;;;;;6249178;28;20235;-69
2023/07/12 08:14:52;;;;;;;8.97;8.17;;;;;;;;;;6245009;28;20213;-67
2023/07/12 08:17:53;;;;;;;9.40;8.50;;;;;;;;;;6244910;28;20217;-67
2023/07/12 08:20:55;;;;;;;9.67;7.87;;;;;;;;;;6251188;28;20182;-68
2023/07/12 08:23:56;;;;;;;7.93;7.23;;;;;;;;;;6270374;28;20222;-67
2023/07/12 08:26:57;;;;;;;9.37;8.57;;;;;;;;;;6258574;28;20272;-68
2023/07/12 08:29:59;;;;;;;8.90;7.87;;;;;;;;;;6278746;28;20211;-68
2023/07/12 08:33:00;;;;;;;8.70;8.00;;;;;;;;;;6258067;28;20217;-68
2023/07/12 08:36:01;;;;;;;8.60;7.30;;;;;;;;;;6252712;28;20466;-68
2023/07/12 08:39:02;;;;;;;7.77;7.03;;;;;;;;;;6248676;28;20212;-66
2023/07/12 08:42:09;;;;;;;8.17;7.33;;;;;;;;;;6236586;28;20222;-69
2023/07/12 08:45:28;;;;;;;7.97;7.27;;;;;;;;;;6266579;28;20193;-66
2023/07/12 08:48:30;;;;;;;9.83;7.07;;;;;;;;;;6260865;28;20282;-67
2023/07/12 08:51:33;;;;;;;8.33;7.37;;;;;;;;;;6264720;28;20198;-69
2023/07/12 08:54:35;;;;;;;10.03;7.30;;;;;;;;;;6254917;28;20238;-66
2023/07/12 08:57:37;;;;;;;8.27;7.27;;;;;;;;;;6242487;28;20264;-69
2023/07/12 09:00:39;;;;;;;8.53;7.73;;;;;;;;;;6247300;28;20198;-67
2023/07/12 09:03:40;;;;;;;7.70;7.07;;;;;;;;;;6244628;28;20187;-67
2023/07/12 09:06:41;;;;;;;9.03;7.93;;;;;;;;;;6244120;28;20190;-67
2023/07/12 09:09:42;;;;;;;10.03;7.40;;;;;;;;;;6252483;28;20202;-64
2023/07/12 09:12:43;;;;;;;7.83;7.07;;;;;;;;;;6245943;28;20214;-69
2023/07/12 09:15:45;;;;;;;7.73;6.60;;;;;;;;;;6245260;28;20210;-67
2023/07/12 09:18:48;;;;;;;8.00;7.30;;;;;;;;;;6265138;28;20193;-66
2023/07/12 09:21:51;;;;;;;7.57;6.60;;;;;;;;;;6260455;28;20212;-67
2023/07/12 09:24:53;;;;;;;8.43;7.57;;;;;;;;;;6250805;28;20218;-67
2023/07/12 09:27:54;;;;;;;7.27;6.57;;;;;;;;;;6257360;28;20241;-67
2023/07/12 09:31:02;;;;;;;6.67;6.07;;;;;;;;;;6248710;28;20187;-67
2023/07/12 09:34:06;;;;;;;6.67;5.97;;;;;;;;;;6264103;28;20206;-67
2023/07/12 09:37:15;;;;;;;6.00;4.23;;;;;;;;;;6259811;28;20186;-65
2023/07/12 09:40:17;;;;;;;4.67;4.00;;;;;;;;;;6259375;28;20183;-63
2023/07/12 09:43:19;;;;;;;5.33;3.93;;;;;;;;;;6260139;28;20273;-64
2023/07/12 09:46:23;;;;;;;4.33;3.87;;;;;;;;;;6255257;28;20186;-65
2023/07/12 09:49:26;;;;;;;6.43;3.93;;;;;;;;;;6260588;28;20193;-64
2023/07/12 09:52:37;;;;;;;4.20;3.80;;;;;;;;;;6273059;28;20197;-66
2023/07/12 09:55:51;;;;;;;4.43;3.60;;;;;;;;;;6271335;28;20305;-68
2023/07/12 09:59:01;;;;;;;3.80;3.40;;;;;;;;;;6263927;28;20237;-67
2023/07/12 10:02:14;;;;;;;4.10;3.70;;;;;;;;;;6253405;28;20187;-66
2023/07/12 10:05:19;;;;;;;4.07;3.10;;;;;;;;;;6262630;28;20257;-68
2023/07/12 10:08:22;;;;;;;4.90;3.43;;;;;;;;;;6251155;28;20198;-66
2023/07/12 10:11:31;;;;;;;3.87;3.50;;;;;;;;;;6278151;28;20190;-67
2023/07/12 10:14:35;;;;;;;4.57;3.50;;;;;;;;;;6265586;28;20217;-68
2023/07/12 10:17:38;;;;;;;3.90;3.40;;;;;;;;;;6261808;28;20178;-66
2023/07/12 10:20:39;;;;;;;4.47;3.43;;;;;;;;;;6248704;28;20186;-66
2023/07/12 10:23:44;;;;;;;5.30;3.50;;;;;;;;;;6247279;28;20193;-67
2023/07/12 10:26:45;;;;;;;5.67;3.60;;;;;;;;;;6259500;28;20248;-67
2023/07/12 10:29:50;;;;;;;4.10;3.70;;;;;;;;;;6274084;28;20182;-66
2023/07/12 10:33:00;;;;;;;4.03;3.60;;;;;;;;;;6269631;28;20190;-65
2023/07/12 10:36:19;;;;;;;4.93;4.50;;;;;;;;;;6251423;28;20226;-67
2023/07/12 10:39:21;;;;;;;5.30;3.60;;;;;;;;;;6253017;28;20183;-67
2023/07/12 10:42:26;;;;;;;4.90;4.13;;;;;;;;;;6254989;28;20194;-66
2023/07/12 10:45:31;;;;;;;3.87;3.53;;;;;;;;;;6253659;28;20198;-67
2023/07/12 10:48:32;;;;;;;7.00;3.60;;;;;;;;;;6267128;28;20194;-68
2023/07/12 10:51:38;;;;;;;4.30;3.90;;;;;;;;;;6266091;28;20194;-68
2023/07/12 10:54:47;;;;;;;3.73;3.37;;;;;;;;;;6273699;28;20210;-68
2023/07/12 10:57:50;;;;;;;4.40;3.27;;;;;;;;;;6274601;28;20190;-68
2023/07/12 11:00:56;;;;;;;5.93;3.30;;;;;;;;;;6264927;28;20234;-69
2023/07/12 11:04:07;;;;;;;4.33;3.37;;;;;;;;;;6271365;28;20276;-67
2023/07/12 11:07:08;;;;;;;3.03;2.77;;;;;;;;;;6268741;28;20198;-68
2023/07/12 11:10:17;;;;;;;5.33;3.00;;;22.30;90.00;;;;;;6253852;28;20194;-67
2023/07/12 11:13:18;;;;;;;3.30;2.57;;;29.40;47.90;;;;;;6248694;28;20253;-67
2023/07/12 11:16:20;;;;;;;3.97;2.53;;;29.40;47.20;;;;;;6254942;28;20214;-68
2023/07/12 11:19:33;;;;;;;4.17;3.53;;;29.40;48.30;;;;;;6249012;28;20185;-67
2023/07/12 11:23:07;;;;;;;3.37;3.03;;;29.30;48.50;;;;;;6265180;28;20187;-68
2023/07/12 11:26:29;;;;;;;3.37;2.53;;;29.30;47.70;;;;;;6258058;28;20187;-68
2023/07/12 11:29:30;;;;;;;3.93;3.10;;;29.40;48.50;;;;;;6257599;28;20199;-67
2023/07/12 11:32:36;;;;;;;4.43;3.17;;;29.40;48.00;;;;;;6265136;28;20216;-67
2023/07/12 11:35:47;;;;;;;3.93;3.27;;;29.40;48.40;;;;;;6265916;28;20218;-68
2023/07/12 11:38:49;;;;;;;7.20;3.63;;;29.50;48.40;;;;;;6259731;28;20186;-68
2023/07/12 11:42:08;;;;;;;4.63;3.73;;;29.50;47.60;;;;;;6272919;28;20201;-67
2023/07/12 11:45:12;;;;;;;5.10;4.60;;;29.60;49.30;;;;;;6252034;28;20297;-66
2023/07/12 11:48:14;;;;;;;4.70;3.70;;;29.50;53.00;;;;;;6251947;28;20277;-67
2023/07/12 11:51:42;;;;;;;5.87;3.20;;;29.50;49.50;;;;;;6238468;28;20226;-68
2023/07/12 11:54:44;;;;;;;3.73;3.20;;;29.50;48.20;;;;;;6262342;28;20233;-68
2023/07/12 11:57:47;;;;;;;6.17;3.83;;;29.50;48.30;;;;;;6254905;28;20212;-68
2023/07/12 12:00:50;;;;;;;6.17;3.87;;;29.50;48.90;;;;;;6253649;28;20276;-69
2023/07/12 12:03:52;;;;;;;6.13;3.77;;;29.60;48.20;;;;;;6259504;28;20193;-69
2023/07/12 12:06:54;;;;;;;4.83;3.43;;;;;;;;;;6249531;28;20197;-69
2023/07/12 12:09:57;;;;;;;4.27;3.87;;;29.50;49.70;;;;;;6250350;28;20190;-68
2023/07/12 12:12:58;;;;;;;6.73;3.53;;;29.20;49.20;;;;;;6255302;28;20245;-69
2023/07/12 12:16:04;;;;;;;4.90;3.80;;;29.10;50.60;;;;;;6266671;28;20301;-69
2023/07/12 12:19:15;;;;;;;4.30;3.83;;;29.00;50.30;;;;;;6272321;28;20186;-69
2023/07/12 12:22:23;;;;;;;5.17;3.80;;;29.00;51.10;;;;;;6275557;28;20190;-69
2023/07/12 12:25:26;;;;;;;6.83;3.77;;;29.10;50.70;;;;;;6271814;28;20201;-68
2023/07/12 12:28:32;;;;;;;4.67;4.10;;;29.20;50.30;;;;;;6272745;28;20249;-67
2023/07/12 12:31:47;;;;;;;7.13;3.80;;;29.40;50.70;;;;;;6264379;28;20191;-67
2023/07/12 12:34:51;;;;;;;4.80;3.87;;;;;;;;;;6256896;28;20215;-67
2023/07/12 12:37:56;;;;;;;5.87;3.80;;;;;;;;;;6258330;28;20193;-67
2023/07/12 12:41:14;;;;;;;4.83;3.70;;;;;;;;;;6272080;28;20185;-67
2023/07/12 12:44:16;;;;;;;3.87;3.20;;;;;;;;;;6263395;28;20205;-67
2023/07/12 12:47:19;;;;;;;3.17;2.77;;;;;;;;;;6266596;28;20216;-67
2023/07/12 12:50:21;;;;;;;4.07;3.17;;;;;;;;;;6262840;28;20245;-67
2023/07/12 12:53:21;;;;;;;3.83;3.43;;;29.50;50.70;;;;;;6271235;28;20195;-68
2023/07/12 12:56:22;;;;;;;3.70;3.40;;;28.30;49.80;;;;;;6257085;28;20210;-68
2023/07/12 12:59:23;;;;;;;4.07;3.43;;;28.20;50.30;;;;;;6265647;28;20225;-67
2023/07/12 13:02:24;;;;;;;3.23;2.77;;;28.10;50.90;;;;;;6265057;28;20194;-67
2023/07/12 13:05:27;;;;;;;7.03;3.27;;;28.10;50.50;;;;;;6275271;28;20186;-66
2023/07/12 13:08:28;;;;;;;3.73;3.27;;;28.10;50.10;;;;;;6250596;28;20243;-66
2023/07/12 13:11:29;;;;;;;4.43;2.63;;;28.10;51.30;;;;;;6269022;28;20198;-68
2023/07/12 13:14:30;;;;;;;3.87;2.70;;;;;;;;;;6256256;28;20229;-67
2023/07/12 13:17:31;;;;;;;4.97;2.97;;;;;;;;;;6261420;28;20205;-68
2023/07/12 13:20:33;;;;;;;7.90;3.10;;;28.10;50.40;;;;;;6251480;28;20186;-68
2023/07/12 13:23:34;;;;;;;4.77;2.40;;;28.00;50.20;;;;;;6259482;28;20244;-68
2023/07/12 13:26:39;;;;;;;4.30;2.73;;;28.00;51.10;;;;;;6248586;28;20235;-68
2023/07/12 13:29:39;;;;;;;3.90;2.80;;;28.10;50.60;;;;;;6260780;28;20281;-67
2023/07/12 13:32:41;;;;;;;4.47;3.03;;;28.10;51.00;;;;;;6273232;28;20213;-67
2023/07/12 13:35:43;;;;;;;4.57;2.80;;;28.30;49.80;;;;;;6274349;28;20213;-67
2023/07/12 13:38:44;;;;;;;4.83;2.87;;;28.60;50.40;;;;;;6249850;28;20190;-67
2023/07/12 13:41:46;;;;;;;3.27;2.97;;;28.80;50.50;;;;;;6266776;28;20258;-68
2023/07/12 13:44:47;;;;;;;3.17;2.87;;;28.90;51.50;;;;;;6247400;28;20200;-68
2023/07/12 13:47:48;;;;;;;3.90;3.07;;;28.90;50.30;;;;;;6264575;28;20182;-68
2023/07/12 13:50:48;;;;;;;3.20;2.90;;;28.90;50.80;;;;;;6265738;28;20218;-67
2023/07/12 13:53:52;;;;;;;4.50;3.43;;;28.80;53.40;;;;;;6251439;28;20191;-67
2023/07/12 13:56:54;;;;;;;6.93;3.23;;;28.90;53.30;;;;;;6271950;28;20179;-67
2023/07/12 13:59:55;;;;;;;5.67;3.40;;;29.00;50.00;;;;;;6253099;28;20269;-67
2023/07/12 14:02:58;;;;;;;4.47;3.40;;;29.10;50.30;;;;;;6250945;28;20186;-68
2023/07/12 14:06:00;;;;;;;3.47;3.17;;;29.30;52.60;;;;;;6269202;28;20178;-68
2023/07/12 14:09:00;;;;;;;8.63;3.63;;;29.70;53.60;;;;;;6252400;28;20199;-68
2023/07/12 14:12:01;;;;;;;4.73;3.37;;;30.20;49.00;;;;;;6267591;28;20333;-68
2023/07/12 14:15:02;;;;;;;5.17;3.63;;;30.50;47.00;;;;;;6246959;28;20248;-67
2023/07/12 14:18:03;;;;;;;4.33;3.50;;;30.50;48.80;;;;;;6241205;28;20181;-68
2023/07/12 14:21:13;;;;;;;4.33;3.93;;;30.70;50.30;;;;;;6247672;28;20190;-68
2023/07/12 14:24:14;;;;;;;4.30;3.90;;;30.90;50.00;;;;;;6266079;28;20187;-67
2023/07/12 14:27:32;;;;;;;7.03;3.50;;;30.90;48.40;;;;;;6259381;28;20244;-67
2023/07/12 14:30:33;;;;;;;3.87;3.50;;;31.00;50.20;;;;;;6250842;28;20194;-67
2023/07/12 14:33:34;;;;;;;5.03;3.70;;;31.10;50.70;;;;;;6246241;28;20194;-68
2023/07/12 14:36:35;;;;;;;4.30;3.87;;;31.20;50.10;;;;;;6249172;28;20195;-68
2023/07/12 14:39:36;;;;;;;4.47;3.87;;;31.30;49.10;;;;;;6252036;28;20186;-68
2023/07/12 14:42:36;;;;;;;3.67;3.07;;;31.20;48.50;;;;;;6248382;28;20195;-67
2023/07/12 14:45:37;;;;;;;4.07;3.50;;;31.20;48.40;;;;;;6238926;28;20190;-68
2023/07/12 14:48:38;;;;;;;4.40;3.47;;;31.00;50.10;;;;;;6261982;28;20193;-68
2023/07/12 14:51:39;;;;;;;3.83;3.43;;;30.90;48.80;;;;;;6232748;28;20292;-68
2023/07/12 14:54:40;;;;;;;4.30;3.30;;;30.80;52.60;;;;;;6245913;28;20240;-68
2023/07/12 14:57:41;;;;;;;3.27;3.00;;;30.80;49.20;;;;;;6244931;28;20192;-68
2023/07/12 15:00:42;;;;;;;3.40;3.10;;;30.90;48.60;;;;;;6251454;28;20186;-67
2023/07/12 15:03:42;;;;;;;4.13;3.30;;;30.90;48.70;;;;;;6263199;28;20198;-68
2023/07/12 15:06:43;;;;;;;6.23;3.30;;;30.80;47.40;;;;;;6256674;28;20194;-67
2023/07/12 15:09:44;;;;;;;3.87;2.90;;;31.00;49.20;;;;;;6242651;28;20189;-68
2023/07/12 15:13:01;;;;;;;3.53;2.60;;;31.10;47.90;;;;;;6238297;28;20204;-67
2023/07/12 15:16:03;;;;;;;5.93;2.93;;;31.00;47.20;;;;;;6271525;28;20221;-68
2023/07/12 15:19:03;;;;;;;3.87;2.70;;;30.80;46.90;;;;;;6249505;28;20177;-67
2023/07/12 15:22:04;;;;;;;4.20;2.80;;;31.00;46.70;;;;;;6231975;28;20193;-67
2023/07/12 15:25:16;;;;;;;3.13;2.77;;;31.00;47.90;;;;;;6235114;28;20194;-67
2023/07/12 15:28:19;;;;;;;3.73;2.80;;;31.00;46.30;;;;;;6254258;28;20277;-67
2023/07/12 15:31:32;;;;;;;3.33;2.40;;;31.00;46.80;;;;;;6247770;28;20245;-67
2023/07/12 15:34:32;;;;;;;2.93;2.70;;;31.10;48.10;;;;;;6266832;28;20244;-68
2023/07/12 15:37:33;;;;;;;3.10;2.80;;;31.30;48.70;;;;;;6247799;28;20182;-67
2023/07/12 15:41:02;;;;;;;3.23;2.67;;;31.30;47.70;;;;;;6248011;28;20185;-67
2023/07/12 15:44:04;;;;;;;4.03;3.10;;;31.40;46.90;;;;;;6254352;28;20190;-66
2023/07/12 15:47:11;;;;;;;4.87;3.17;;;31.40;46.20;;;;;;6267639;28;20193;-67
2023/07/12 15:50:14;;;;;;;3.03;2.80;;;31.50;47.20;;;;;;6260848;28;20187;-67
2023/07/12 15:53:17;;;;;;;3.73;2.83;;;31.40;46.80;;;;;;6252887;28;20196;-66
2023/07/12 15:56:27;;;;;;;3.33;3.03;;;31.40;44.90;;;;;;6258701;28;20206;-68
2023/07/12 15:59:29;;;;;;;2.97;2.77;;;31.40;45.80;;;;;;6250079;28;20329;-67
2023/07/12 16:02:30;;;;;;;2.90;2.70;;;31.40;44.10;;;;;;6272154;28;20188;-66
2023/07/12 16:05:30;;;;;;;2.97;2.67;;;31.40;45.10;;;;;;6237000;28;20194;-66
2023/07/12 16:08:32;;;;;;;3.10;2.70;;;31.40;45.50;;;;;;6231898;28;20205;-66
2023/07/12 16:11:36;;;;;;;4.23;2.97;;;31.40;45.20;;;;;;6247460;28;20196;-66
2023/07/12 16:14:37;;;;;;;3.20;2.53;;;31.40;44.20;;;;;;6253793;28;20544;-65
2023/07/12 16:17:38;;;;;;;2.93;2.43;;;31.40;43.60;;;;;;6264948;28;20197;-65
2023/07/12 16:20:40;;;;;;;3.87;2.17;;;31.30;44.50;;;;;;6248392;28;20197;-64
2023/07/12 16:23:41;;;;;;;3.57;2.40;;;31.30;44.00;;;;;;6270785;28;20243;-66
2023/07/12 16:26:42;;;;;;;3.23;2.03;;;31.40;43.20;;;;;;6244555;28;20229;-64
2023/07/12 16:29:43;;;;;;;1.77;1.67;;;31.40;41.60;;;;;;6275154;28;20196;-65
2023/07/12 16:32:45;;;;;;;2.30;2.10;;;31.30;42.00;;;;;;6259446;28;20190;-65
2023/07/12 16:35:48;;;;;;;2.40;1.77;;;31.30;42.20;;;;;;6249486;28;20210;-65
2023/07/12 16:38:49;;;;;;;1.90;1.70;;;31.20;42.60;;;;;;6271258;28;20200;-64
2023/07/12 16:41:51;;;;;;;1.93;1.77;;;31.20;43.30;;;;;;6270410;28;20186;-65
2023/07/12 16:44:52;;;;;;;2.03;1.83;;;31.10;43.80;;;;;;6262642;28;20193;-64
2023/07/12 16:47:53;;;;;;;2.83;1.40;;;31.00;41.90;;;;;;6259686;28;20181;-65
2023/07/12 16:50:55;;;;;;;1.50;1.40;;;;;;;;;;6269758;28;20216;-65
2023/07/12 16:53:56;;;;;;;2.10;1.73;;;31.00;40.50;;;;;;6258310;28;20193;-65
2023/07/12 16:56:58;;;;;;;1.50;1.30;;;31.00;41.70;;;;;;6260582;28;20185;-64
2023/07/12 16:59:59;;;;;;;2.73;1.50;;;31.00;41.40;;;;;;6261126;28;20178;-64
2023/07/12 17:03:00;;;;;;;1.80;1.50;;;30.90;42.00;;;;;;6269840;28;20276;-64
2023/07/12 17:06:01;;;;;;;1.77;1.53;;;30.90;41.60;;;;;;6240368;28;20194;-64
2023/07/12 17:09:17;;;;;;;2.20;1.47;;;30.90;41.70;;;;;;6258413;28;20214;-66
2023/07/12 17:12:29;;;;;;;2.47;1.50;;;30.80;45.10;;;;;;6263847;28;20186;-65